Platzwetter Flugplatz Wels

Flugwetter Linz LOWL

[Quelle: ADDS]
METAR
LOWL 041020Z VRB02KT CAVOK 01/M02 Q0995 R08/190195 NOSIG =
LOWL 040515Z 0406/0506 08007KT CAVOK TX03/0414Z TNM03/0407Z PROB30 TEMPO 0406/0410 VRB02KT 0900 FZBCFG BKN003 BECMG 0419/0421 09012KT TEMPO 0500/0506 09017G30KT
TAF
LOWL 040515Z 0406/0506 08007KT CAVOK TX03/0414Z TNM03/0407Z PROB30 TEMPO 0406/0410 VRB02KT 0900 FZBCFG BKN003 BECMG 0419/0421 09012KT TEMPO 0500/0506 09017G30KT =

Flugwetter Salzburg LOWS

[Quelle: ADDS]
METAR
LOWS 041020Z 01003KT 300V100 9999 FEW130 00/M02 Q0992 BECMG 16010KT =
LOWS 040515Z 0406/0506 15005KT 9999 FEW100 TX06/0413Z TNM08/0406Z PROB30 TEMPO 0406/0408 34004KT 1200 FZBCFG FEW002 BECMG 0408/0410 16010KT CAVOK TEMPO 0412/0422 15015G25KT TEMPO 0503/0506 32008KT
TAF
LOWS 040515Z 0406/0506 15005KT 9999 FEW100 TX06/0413Z TNM08/0406Z PROB30 TEMPO 0406/0408 34004KT 1200 FZBCFG FEW002 BECMG 0408/0410 16010KT CAVOK TEMPO 0412/0422 15015G25KT TEMPO 0503/0506 32008KT =

Wind - Verlauf

Windrichtung - Verlauf

Temperatur - Verlauf

Relative Luftfeuchtigkeit - Verlauf

Luftdruck - Verlauf

Cookies erleichtern die Bereitstellung unserer Dienste. Mit der Nutzung unserer Dienste erklären Sie sich damit einverstanden, dass wir Cookies verwenden.
Weitere Informationen Ok